createdAt,value
2023-03-25T00:00:13.211Z,9.39
2023-03-25T00:02:40.965Z,9.39
2023-03-25T00:05:08.209Z,9.37
2023-03-25T00:07:34.688Z,9.37
2023-03-25T00:10:01.131Z,9.40
2023-03-25T00:12:27.779Z,9.41
2023-03-25T00:14:54.923Z,9.35
2023-03-25T00:17:23.054Z,9.38
2023-03-25T00:19:50.545Z,9.41
2023-03-25T00:22:18.149Z,9.42
2023-03-25T00:24:45.352Z,9.40
2023-03-25T00:27:14.236Z,9.39
2023-03-25T00:29:44.895Z,9.39
2023-03-25T00:32:13.410Z,9.41
2023-03-25T00:34:47.288Z,9.39
2023-03-25T00:37:21.741Z,9.37
2023-03-25T00:39:48.581Z,9.38
2023-03-25T00:42:26.021Z,9.41
2023-03-25T00:44:53.588Z,9.41
2023-03-25T00:47:21.705Z,9.38
2023-03-25T00:49:49.345Z,9.41
2023-03-25T00:52:16.025Z,9.38
2023-03-25T00:54:43.170Z,9.40
2023-03-25T00:57:09.763Z,9.41
2023-03-25T00:59:36.284Z,9.42
2023-03-25T01:02:03.637Z,9.43
2023-03-25T01:04:30.140Z,9.40
2023-03-25T01:06:56.643Z,9.40
2023-03-25T01:09:23.134Z,9.44
2023-03-25T01:11:50.012Z,9.41
2023-03-25T01:14:20.942Z,9.40
2023-03-25T01:16:47.517Z,9.41
2023-03-25T01:19:14.710Z,9.40
2023-03-25T01:21:41.948Z,9.39
2023-03-25T01:24:13.266Z,9.40
2023-03-25T01:26:41.304Z,9.40
2023-03-25T01:29:07.881Z,9.41
2023-03-25T01:31:34.397Z,9.41
2023-03-25T01:34:00.855Z,9.39
2023-03-25T01:36:30.654Z,9.41
2023-03-25T01:38:59.430Z,9.40
2023-03-25T01:41:42.185Z,9.41
2023-03-25T01:44:18.094Z,9.41
2023-03-25T01:46:45.325Z,9.40
2023-03-25T01:49:17.224Z,9.39
2023-03-25T01:51:48.024Z,9.40
2023-03-25T01:54:18.021Z,9.39
2023-03-25T01:56:47.415Z,9.39
2023-03-25T01:59:18.180Z,9.37
2023-03-25T02:01:46.817Z,9.34
2023-03-25T02:04:22.771Z,9.34
2023-03-25T02:06:52.876Z,9.34
2023-03-25T02:09:21.787Z,9.34
2023-03-25T02:11:48.761Z,9.33
2023-03-25T02:14:23.907Z,9.33
2023-03-25T02:17:27.226Z,9.32
2023-03-25T02:20:37.375Z,9.29
2023-03-25T02:23:41.836Z,9.31
2023-03-25T02:26:23.636Z,9.29
2023-03-25T02:29:13.561Z,9.27
2023-03-25T02:32:07.265Z,9.23
2023-03-25T02:34:41.784Z,9.23
2023-03-25T02:37:26.934Z,9.23
2023-03-25T02:40:07.080Z,9.19
2023-03-25T02:42:45.830Z,9.17
2023-03-25T02:45:22.322Z,9.17
2023-03-25T02:47:53.870Z,9.19
2023-03-25T02:50:26.653Z,9.16
2023-03-25T02:52:59.821Z,9.15
2023-03-25T02:55:30.477Z,9.14
2023-03-25T02:57:59.230Z,9.10
2023-03-25T03:00:29.811Z,9.10
2023-03-25T03:03:02.120Z,9.08
2023-03-25T03:05:34.699Z,9.09
2023-03-25T03:08:28.792Z,9.06
2023-03-25T03:11:01.223Z,9.07
2023-03-25T03:14:11.145Z,9.05
2023-03-25T03:16:58.542Z,9.06
2023-03-25T03:19:34.431Z,9.05
2023-03-25T03:22:14.040Z,9.05
2023-03-25T03:24:49.407Z,9.04
2023-03-25T03:27:25.662Z,9.05
2023-03-25T03:30:22.269Z,9.05
2023-03-25T03:33:04.221Z,9.04
2023-03-25T03:35:34.954Z,9.04
2023-03-25T03:38:09.372Z,9.03
2023-03-25T03:40:37.451Z,9.02
2023-03-25T03:43:08.639Z,9.03
2023-03-25T03:45:46.622Z,9.06
2023-03-25T03:48:19.043Z,9.07
2023-03-25T03:50:53.668Z,9.09
2023-03-25T03:53:38.677Z,9.07
2023-03-25T03:56:13.722Z,9.05
2023-03-25T03:58:43.056Z,9.04
2023-03-25T04:01:34.680Z,9.03
2023-03-25T04:04:04.907Z,9.00
2023-03-25T04:06:35.460Z,8.98
2023-03-25T04:09:28.196Z,8.95
2023-03-25T04:12:17.965Z,8.92
2023-03-25T04:14:45.038Z,8.90
2023-03-25T04:17:11.871Z,8.90
2023-03-25T04:19:39.232Z,8.91
2023-03-25T04:22:06.963Z,8.92
2023-03-25T04:24:33.728Z,8.92
2023-03-25T04:27:04.370Z,8.92
2023-03-25T04:29:34.249Z,8.95
2023-03-25T04:32:01.686Z,8.95
2023-03-25T04:34:29.497Z,8.95
2023-03-25T04:36:58.384Z,8.99
2023-03-25T04:39:25.537Z,9.00
2023-03-25T04:42:03.224Z,8.99
2023-03-25T04:44:33.565Z,8.98
2023-03-25T04:47:02.281Z,8.99
2023-03-25T04:49:28.737Z,9.00
2023-03-25T04:51:55.738Z,9.00
2023-03-25T04:54:23.436Z,8.99
2023-03-25T04:56:51.797Z,8.99
2023-03-25T04:59:19.802Z,9.02
2023-03-25T05:01:47.200Z,9.04
2023-03-25T05:04:17.561Z,9.06
2023-03-25T05:06:50.596Z,9.04
2023-03-25T05:09:19.774Z,9.07
2023-03-25T05:11:46.812Z,8.97
2023-03-25T05:14:16.476Z,8.93
2023-03-25T05:16:43.569Z,8.86
2023-03-25T05:19:10.317Z,8.82
2023-03-25T05:21:39.290Z,8.72
2023-03-25T05:24:10.665Z,8.66
2023-03-25T05:26:42.588Z,8.66
2023-03-25T05:29:14.738Z,8.63
2023-03-25T05:31:44.668Z,8.63
2023-03-25T05:34:11.208Z,8.61
2023-03-25T05:36:37.799Z,8.58
2023-03-25T05:39:05.614Z,8.54
2023-03-25T05:41:32.937Z,8.54
2023-03-25T05:44:00.785Z,8.56
2023-03-25T05:46:29.797Z,8.57
2023-03-25T05:49:00.840Z,8.59
2023-03-25T05:51:28.811Z,8.59
2023-03-25T05:53:55.360Z,8.62
2023-03-25T05:56:24.176Z,8.63
2023-03-25T05:58:52.256Z,8.66
2023-03-25T06:01:31.858Z,8.66
2023-03-25T06:04:03.456Z,8.68
2023-03-25T06:06:32.273Z,8.70
2023-03-25T06:08:59.018Z,8.73
2023-03-25T06:11:25.679Z,8.73
2023-03-25T06:13:52.559Z,8.75
2023-03-25T06:16:27.876Z,8.78
2023-03-25T06:18:59.683Z,8.80
2023-03-25T06:21:32.921Z,8.80
2023-03-25T06:24:01.353Z,8.78
2023-03-25T06:26:28.092Z,8.76
2023-03-25T06:28:54.870Z,8.73
2023-03-25T06:31:33.285Z,8.73
2023-03-25T06:34:01.365Z,8.68
2023-03-25T06:36:27.794Z,8.61
2023-03-25T06:38:54.311Z,8.56
2023-03-25T06:41:21.729Z,8.51
2023-03-25T06:43:48.613Z,8.45
2023-03-25T06:46:15.774Z,8.40
2023-03-25T06:48:42.464Z,8.37
2023-03-25T06:51:08.871Z,8.36
2023-03-25T06:53:35.578Z,8.34
2023-03-25T06:56:02.008Z,8.33
2023-03-25T06:58:34.715Z,8.33
2023-03-25T07:01:05.979Z,8.35
2023-03-25T07:03:33.568Z,8.32
2023-03-25T07:06:00.214Z,8.32
2023-03-25T07:08:26.738Z,8.34
2023-03-25T07:10:53.160Z,8.38
2023-03-25T07:13:19.637Z,8.37
2023-03-25T07:15:46.301Z,8.39
2023-03-25T07:18:12.814Z,8.43
2023-03-25T07:20:39.328Z,8.50
2023-03-25T07:23:12.619Z,8.54
2023-03-25T07:25:39.126Z,8.58
2023-03-25T07:28:05.850Z,8.61
2023-03-25T07:30:32.532Z,8.65
2023-03-25T07:32:59.122Z,8.70
2023-03-25T07:35:25.767Z,8.73
2023-03-25T07:37:52.269Z,8.78
2023-03-25T07:40:18.752Z,8.82
2023-03-25T07:42:45.666Z,8.85
2023-03-25T07:45:12.204Z,8.86
2023-03-25T07:47:38.787Z,8.87
2023-03-25T07:50:06.029Z,8.89
2023-03-25T07:52:32.492Z,8.90
2023-03-25T07:55:00.491Z,8.91
2023-03-25T07:57:27.004Z,8.94
2023-03-25T07:59:53.472Z,8.96
2023-03-25T08:02:20.007Z,8.95
2023-03-25T08:04:46.676Z,8.97
2023-03-25T08:07:13.133Z,8.96
2023-03-25T08:09:41.618Z,8.93
2023-03-25T08:12:09.029Z,8.94
2023-03-25T08:14:35.830Z,8.93
2023-03-25T08:17:02.276Z,8.97
2023-03-25T08:19:28.886Z,9.01
2023-03-25T08:21:55.368Z,9.06
2023-03-25T08:24:21.931Z,9.11
2023-03-25T08:26:49.243Z,9.13
2023-03-25T08:29:17.422Z,9.19
2023-03-25T08:31:46.698Z,9.25
2023-03-25T08:34:14.241Z,9.25
2023-03-25T08:36:40.732Z,9.26
2023-03-25T08:39:11.698Z,9.25
2023-03-25T08:41:39.946Z,9.27
2023-03-25T08:44:07.311Z,9.29
2023-03-25T08:46:33.854Z,9.33
2023-03-25T08:49:01.162Z,9.35
2023-03-25T08:51:27.721Z,9.35
2023-03-25T08:53:54.264Z,9.34
2023-03-25T08:56:20.851Z,9.39
2023-03-25T08:58:47.244Z,9.44
2023-03-25T09:01:13.811Z,9.51
2023-03-25T09:03:41.088Z,9.57
2023-03-25T09:06:09.136Z,9.62
2023-03-25T09:08:39.662Z,9.67
2023-03-25T09:11:06.331Z,9.72
2023-03-25T09:13:32.884Z,9.74
2023-03-25T09:15:59.446Z,9.71
2023-03-25T09:18:26.054Z,9.74
2023-03-25T09:20:52.568Z,9.72
2023-03-25T09:23:19.043Z,9.69
2023-03-25T09:25:46.275Z,9.70
2023-03-25T09:28:13.513Z,9.72
2023-03-25T09:30:40.158Z,9.76
2023-03-25T09:33:07.410Z,9.80
2023-03-25T09:35:34.008Z,9.82
2023-03-25T09:38:00.500Z,9.84
2023-03-25T09:40:27.033Z,9.84
2023-03-25T09:43:19.744Z,9.83
2023-03-25T09:45:48.401Z,9.86
2023-03-25T09:48:38.708Z,9.88
2023-03-25T09:51:14.220Z,9.90
2023-03-25T09:53:49.425Z,9.92
2023-03-25T09:56:22.868Z,9.93
2023-03-25T09:58:56.920Z,9.96
2023-03-25T10:01:41.705Z,9.96
2023-03-25T10:04:28.924Z,9.99
2023-03-25T10:07:01.427Z,10.04
2023-03-25T10:09:59.536Z,10.05
2023-03-25T10:12:42.253Z,10.09
2023-03-25T10:15:21.552Z,10.11
2023-03-25T10:18:19.240Z,10.16
2023-03-25T10:21:07.171Z,10.16
2023-03-25T10:23:55.716Z,10.19
2023-03-25T10:26:27.250Z,10.29
2023-03-25T10:29:12.286Z,10.38
2023-03-25T10:31:47.724Z,10.47
2023-03-25T10:34:18.326Z,10.59
2023-03-25T10:36:55.029Z,10.54
2023-03-25T10:39:22.976Z,10.53
2023-03-25T10:42:00.439Z,10.51
2023-03-25T10:44:27.838Z,10.40
2023-03-25T10:47:00.608Z,10.33
2023-03-25T10:49:30.063Z,10.35
2023-03-25T10:51:59.223Z,10.40
2023-03-25T10:54:32.958Z,10.41
2023-03-25T10:57:03.403Z,10.43
2023-03-25T10:59:45.279Z,10.58
2023-03-25T11:02:19.996Z,10.62
2023-03-25T11:04:49.820Z,10.57
2023-03-25T11:07:20.754Z,10.52
2023-03-25T11:09:47.501Z,10.55
2023-03-25T11:12:19.145Z,10.62
2023-03-25T11:14:55.498Z,10.63
2023-03-25T11:17:25.767Z,10.70
2023-03-25T11:19:52.156Z,10.74
2023-03-25T11:22:23.016Z,10.73
2023-03-25T11:24:54.491Z,10.69
2023-03-25T11:27:28.541Z,10.65
2023-03-25T11:30:16.310Z,10.69
2023-03-25T11:32:42.900Z,10.67
2023-03-25T11:35:18.704Z,10.62
2023-03-25T11:37:49.044Z,10.58
2023-03-25T11:40:18.712Z,10.52
2023-03-25T11:42:49.769Z,10.52
2023-03-25T11:45:24.137Z,10.54
2023-03-25T11:47:52.151Z,10.68
2023-03-25T11:50:25.183Z,10.83
2023-03-25T11:53:02.857Z,10.91
2023-03-25T11:55:32.559Z,10.89
2023-03-25T11:58:02.075Z,10.82
2023-03-25T12:00:40.713Z,10.68
2023-03-25T12:03:13.613Z,10.59
2023-03-25T12:05:41.749Z,10.53
2023-03-25T12:08:18.437Z,10.47
2023-03-25T12:10:54.589Z,10.26
2023-03-25T12:13:27.333Z,10.13
2023-03-25T12:16:46.674Z,10.02
2023-03-25T12:19:23.127Z,10.07
2023-03-25T12:22:11.707Z,9.97
2023-03-25T12:25:08.807Z,9.92
2023-03-25T12:27:53.357Z,9.99
2023-03-25T12:30:45.932Z,10.05
2023-03-25T12:33:22.044Z,10.09
2023-03-25T12:36:17.266Z,10.29
2023-03-25T12:39:01.638Z,10.79
2023-03-25T12:42:07.609Z,10.79
2023-03-25T12:44:46.129Z,10.84
2023-03-25T12:47:29.082Z,11.24
2023-03-25T12:50:08.170Z,11.44
2023-03-25T12:52:51.730Z,12.08
2023-03-25T12:55:34.228Z,11.92
2023-03-25T12:58:27.636Z,11.50
2023-03-25T13:01:42.316Z,11.30
2023-03-25T13:04:18.815Z,11.04
2023-03-25T13:06:50.330Z,10.94
2023-03-25T13:09:29.764Z,10.60
2023-03-25T13:11:59.597Z,10.26
2023-03-25T13:14:40.741Z,9.96
2023-03-25T13:17:13.992Z,9.81
2023-03-25T13:19:44.243Z,9.68
2023-03-25T13:22:25.546Z,9.68
2023-03-25T13:24:59.195Z,9.69
2023-03-25T13:27:31.043Z,9.57
2023-03-25T13:30:00.119Z,9.39
2023-03-25T13:32:35.249Z,9.23
2023-03-25T13:35:15.812Z,8.92
2023-03-25T13:37:49.431Z,8.83
2023-03-25T13:40:34.209Z,8.75
2023-03-25T13:43:30.532Z,8.72
2023-03-25T13:46:08.819Z,8.87
2023-03-25T13:49:01.583Z,8.98
2023-03-25T13:51:28.156Z,9.08
2023-03-25T13:54:33.063Z,9.42
2023-03-25T13:57:11.730Z,9.51
2023-03-25T14:00:14.649Z,9.80
2023-03-25T14:03:27.389Z,9.72
2023-03-25T14:06:12.027Z,10.00
2023-03-25T14:08:47.843Z,10.18
2023-03-25T14:11:17.396Z,10.13
2023-03-25T14:13:51.148Z,10.29
2023-03-25T14:16:27.728Z,10.14
2023-03-25T14:19:01.518Z,10.01
2023-03-25T14:21:33.760Z,10.03
2023-03-25T14:24:09.946Z,10.04
2023-03-25T14:26:41.606Z,9.97
2023-03-25T14:29:18.505Z,9.91
2023-03-25T14:32:23.630Z,9.86
2023-03-25T14:34:50.472Z,9.97
2023-03-25T14:37:18.378Z,10.30
2023-03-25T14:39:45.519Z,10.52
2023-03-25T14:42:59.150Z,10.47
2023-03-25T14:45:35.518Z,10.54
2023-03-25T14:48:22.920Z,10.46
2023-03-25T14:51:23.262Z,10.38
2023-03-25T14:53:59.933Z,10.28
2023-03-25T14:56:34.342Z,10.14
2023-03-25T14:59:10.431Z,9.98
2023-03-25T15:01:40.272Z,9.88
2023-03-25T15:04:19.248Z,9.82
2023-03-25T15:06:49.170Z,9.78
2023-03-25T15:09:17.729Z,9.76
2023-03-25T15:11:54.531Z,9.73
2023-03-25T15:14:26.151Z,9.73
2023-03-25T15:16:59.154Z,9.72
2023-03-25T15:19:25.784Z,9.71
2023-03-25T15:21:58.244Z,9.64
2023-03-25T15:24:28.532Z,9.50
2023-03-25T15:26:57.729Z,9.40
2023-03-25T15:29:54.095Z,9.31
2023-03-25T15:32:42.988Z,9.26
2023-03-25T15:35:45.057Z,9.15
2023-03-25T15:38:35.785Z,9.05
2023-03-25T15:41:16.542Z,9.01
2023-03-25T15:44:00.982Z,8.99
2023-03-25T15:46:33.095Z,9.09
2023-03-25T15:49:39.012Z,9.26
2023-03-25T15:52:08.438Z,9.29
2023-03-25T15:54:43.707Z,9.30
2023-03-25T15:57:20.879Z,9.28
2023-03-25T16:00:01.994Z,9.31
2023-03-25T16:02:36.767Z,9.32
2023-03-25T16:05:05.007Z,9.36
2023-03-25T16:07:33.969Z,9.37
2023-03-25T16:10:19.613Z,9.38
2023-03-25T16:12:48.235Z,9.36
2023-03-25T16:15:25.590Z,9.38
2023-03-25T16:17:52.479Z,9.38
2023-03-25T16:20:23.421Z,9.45
2023-03-25T16:22:54.056Z,9.43
2023-03-25T16:25:26.997Z,9.46
2023-03-25T16:27:58.023Z,9.49
2023-03-25T16:30:41.804Z,9.49
2023-03-25T16:33:12.052Z,9.51
2023-03-25T16:35:41.469Z,9.55
2023-03-25T16:38:09.035Z,9.61
2023-03-25T16:40:40.501Z,9.62
2023-03-25T16:43:24.664Z,9.68
2023-03-25T16:45:53.464Z,9.70
2023-03-25T16:48:35.564Z,9.76
2023-03-25T16:51:29.423Z,9.76
2023-03-25T16:53:59.522Z,9.70
2023-03-25T16:56:30.974Z,9.66
2023-03-25T16:59:25.009Z,9.57
2023-03-25T17:01:54.993Z,9.49
2023-03-25T17:04:26.151Z,9.45
2023-03-25T17:07:09.313Z,9.38
2023-03-25T17:09:40.109Z,9.34
2023-03-25T17:12:09.264Z,9.29
2023-03-25T17:14:44.915Z,9.25
2023-03-25T17:17:22.356Z,9.25
2023-03-25T17:19:52.242Z,9.22
2023-03-25T17:22:33.980Z,9.23
2023-03-25T17:25:37.271Z,9.25
2023-03-25T17:28:22.713Z,9.26
2023-03-25T17:30:49.354Z,9.29
2023-03-25T17:33:25.467Z,9.36
2023-03-25T17:35:54.532Z,9.38
2023-03-25T17:38:38.440Z,9.39
2023-03-25T17:41:08.124Z,9.36
2023-03-25T17:43:41.345Z,9.32
2023-03-25T17:46:09.401Z,9.26
2023-03-25T17:48:36.746Z,9.22
2023-03-25T17:51:03.605Z,9.18
2023-03-25T17:53:30.380Z,9.15
2023-03-25T17:55:59.108Z,9.14
2023-03-25T17:58:25.855Z,9.10
2023-03-25T18:00:52.943Z,9.11
2023-03-25T18:03:26.369Z,9.12
2023-03-25T18:05:55.852Z,9.13
2023-03-25T18:08:23.759Z,9.12
2023-03-25T18:10:51.872Z,9.13
2023-03-25T18:13:19.770Z,9.11
2023-03-25T18:15:46.516Z,9.11
2023-03-25T18:18:24.630Z,9.12
2023-03-25T18:20:52.917Z,9.14
2023-03-25T18:23:19.673Z,9.16
2023-03-25T18:25:46.417Z,9.19
2023-03-25T18:28:14.119Z,9.21
2023-03-25T18:30:49.299Z,9.22
2023-03-25T18:33:16.898Z,9.25
2023-03-25T18:35:44.872Z,9.22
2023-03-25T18:38:24.366Z,9.23
2023-03-25T18:40:52.524Z,9.23
2023-03-25T18:43:19.313Z,9.23
2023-03-25T18:45:46.672Z,9.19
2023-03-25T18:48:15.254Z,9.18
2023-03-25T18:50:48.427Z,9.16
2023-03-25T18:53:15.210Z,9.13
2023-03-25T18:55:43.338Z,9.09
2023-03-25T18:58:22.561Z,9.06
2023-03-25T19:00:51.793Z,9.03
2023-03-25T19:03:20.619Z,9.02
2023-03-25T19:05:47.621Z,8.98
2023-03-25T19:08:18.252Z,8.96
2023-03-25T19:10:44.984Z,8.94
2023-03-25T19:13:11.596Z,8.94
2023-03-25T19:15:40.532Z,8.92
2023-03-25T19:18:07.308Z,8.89
2023-03-25T19:20:36.139Z,8.88
2023-03-25T19:23:04.305Z,8.88
2023-03-25T19:25:30.841Z,8.85
2023-03-25T19:27:57.429Z,8.84
2023-03-25T19:30:25.063Z,8.83
2023-03-25T19:32:54.488Z,8.82
2023-03-25T19:35:23.103Z,8.85
2023-03-25T19:37:53.154Z,8.86
2023-03-25T19:40:26.824Z,8.85
2023-03-25T19:42:55.914Z,8.85
2023-03-25T19:45:24.095Z,8.83
2023-03-25T19:47:54.842Z,8.87
2023-03-25T19:50:31.438Z,8.87
2023-03-25T19:53:00.804Z,8.84
2023-03-25T19:55:28.149Z,8.85
2023-03-25T19:57:54.936Z,8.87
2023-03-25T20:00:27.764Z,8.89
2023-03-25T20:03:01.898Z,8.93
2023-03-25T20:05:36.750Z,8.96
2023-03-25T20:08:04.267Z,8.98
2023-03-25T20:10:34.388Z,8.99
2023-03-25T20:13:02.080Z,9.00
2023-03-25T20:15:28.664Z,9.01
2023-03-25T20:17:55.777Z,9.08
2023-03-25T20:20:25.322Z,9.11
2023-03-25T20:22:51.856Z,9.10
2023-03-25T20:25:22.153Z,9.13
2023-03-25T20:27:48.697Z,9.19
2023-03-25T20:30:22.023Z,9.22
2023-03-25T20:32:48.981Z,9.27
2023-03-25T20:35:17.863Z,9.35
2023-03-25T20:37:49.067Z,9.36
2023-03-25T20:40:19.748Z,9.37
2023-03-25T20:42:50.011Z,9.29
2023-03-25T20:45:20.294Z,9.23
2023-03-25T20:47:50.344Z,9.16
2023-03-25T20:50:17.382Z,9.12
2023-03-25T20:52:45.272Z,9.09
2023-03-25T20:55:13.845Z,9.07
2023-03-25T20:57:41.705Z,9.04
2023-03-25T21:00:18.063Z,9.04
2023-03-25T21:02:47.168Z,9.02
2023-03-25T21:05:15.300Z,9.03
2023-03-25T21:07:46.761Z,9.04
2023-03-25T21:10:13.999Z,9.06
2023-03-25T21:12:44.387Z,9.10
2023-03-25T21:15:14.960Z,9.16
2023-03-25T21:17:42.559Z,9.18
2023-03-25T21:20:13.395Z,9.15
2023-03-25T21:22:45.006Z,9.16
2023-03-25T21:25:14.394Z,9.16
2023-03-25T21:27:47.765Z,9.15
2023-03-25T21:30:15.206Z,9.16
2023-03-25T21:32:42.035Z,9.15
2023-03-25T21:35:10.028Z,9.18
2023-03-25T21:37:41.008Z,9.16
2023-03-25T21:40:10.878Z,9.16
2023-03-25T21:42:41.906Z,9.17
2023-03-25T21:45:11.133Z,9.16
2023-03-25T21:47:37.705Z,9.15
2023-03-25T21:50:11.592Z,9.14
2023-03-25T21:52:43.728Z,9.13
2023-03-25T21:55:11.111Z,8.89
2023-03-25T21:57:40.438Z,8.72
2023-03-25T22:00:08.170Z,8.63
2023-03-25T22:02:35.036Z,8.58
2023-03-25T22:05:01.681Z,8.51
2023-03-25T22:07:34.205Z,8.49
2023-03-25T22:10:10.653Z,8.45
2023-03-25T22:12:37.158Z,8.33
2023-03-25T22:15:04.009Z,8.26
2023-03-25T22:17:30.638Z,8.23
2023-03-25T22:19:57.347Z,8.21
2023-03-25T22:22:24.008Z,8.22
2023-03-25T22:24:50.603Z,8.03
2023-03-25T22:27:17.163Z,8.08
2023-03-25T22:29:43.640Z,8.03
2023-03-25T22:32:10.695Z,8.03
2023-03-25T22:34:37.880Z,8.07
2023-03-25T22:37:04.499Z,8.07
2023-03-25T22:39:31.031Z,8.10
2023-03-25T22:41:57.905Z,8.12
2023-03-25T22:44:25.030Z,8.18
2023-03-25T22:46:51.665Z,8.19
2023-03-25T22:49:18.781Z,8.20
2023-03-25T22:51:45.496Z,8.20
2023-03-25T22:54:12.096Z,8.26
2023-03-25T22:56:38.755Z,8.23
2023-03-25T22:59:07.113Z,8.26
2023-03-25T23:01:36.045Z,8.23
2023-03-25T23:04:02.813Z,8.26
2023-03-25T23:06:29.954Z,8.23
2023-03-25T23:08:57.549Z,8.23
2023-03-25T23:11:27.445Z,8.23
2023-03-25T23:13:57.032Z,8.23
2023-03-25T23:16:26.665Z,8.24
2023-03-25T23:18:53.457Z,8.26
2023-03-25T23:21:25.509Z,8.28
2023-03-25T23:23:54.046Z,8.29
2023-03-25T23:26:41.236Z,8.31
2023-03-25T23:29:10.422Z,8.31
2023-03-25T23:31:41.140Z,8.34
2023-03-25T23:34:10.749Z,8.30
2023-03-25T23:36:38.355Z,8.30
2023-03-25T23:39:07.617Z,8.33
2023-03-25T23:41:35.003Z,8.35
2023-03-25T23:44:01.831Z,8.33
2023-03-25T23:46:29.161Z,8.33
2023-03-25T23:48:55.820Z,8.37
2023-03-25T23:51:24.800Z,8.35
2023-03-25T23:53:52.720Z,8.34
2023-03-25T23:56:22.397Z,8.36
2023-03-25T23:58:49.696Z,8.36
